createdAt,value
2022-09-24T00:02:11.357Z,11.40
2022-09-24T00:04:38.064Z,11.40
2022-09-24T00:07:04.636Z,11.40
2022-09-24T00:09:31.154Z,11.30
2022-09-24T00:11:57.810Z,11.40
2022-09-24T00:14:24.315Z,11.40
2022-09-24T00:16:50.975Z,11.40
2022-09-24T00:19:17.563Z,11.50
2022-09-24T00:21:44.161Z,11.30
2022-09-24T00:24:33.590Z,11.30
2022-09-24T00:27:00.661Z,11.30
2022-09-24T00:29:27.332Z,11.20
2022-09-24T00:31:53.972Z,11.30
2022-09-24T00:34:20.849Z,11.30
2022-09-24T00:36:48.308Z,11.20
2022-09-24T00:39:15.346Z,11.40
2022-09-24T00:41:47.814Z,11.20
2022-09-24T00:44:33.281Z,11.30
2022-09-24T00:47:00.291Z,11.30
2022-09-24T00:49:26.862Z,11.30
2022-09-24T00:51:53.420Z,11.30
2022-09-24T00:54:23.027Z,11.30
2022-09-24T00:56:50.905Z,11.30
2022-09-24T00:59:19.258Z,11.40
2022-09-24T01:01:46.831Z,11.40
2022-09-24T01:04:14.629Z,11.30
2022-09-24T01:06:41.417Z,11.30
2022-09-24T01:09:08.188Z,11.30
2022-09-24T01:11:37.524Z,11.30
2022-09-24T01:14:39.877Z,11.30
2022-09-24T01:17:17.995Z,11.40
2022-09-24T01:19:53.501Z,11.30
2022-09-24T01:22:37.218Z,11.30
2022-09-24T01:25:19.348Z,11.30
2022-09-24T01:28:04.823Z,11.30
2022-09-24T01:30:33.260Z,11.20
2022-09-24T01:33:03.218Z,11.20
2022-09-24T01:35:37.858Z,11.20
2022-09-24T01:38:18.806Z,11.20
2022-09-24T01:40:46.399Z,11.20
2022-09-24T01:43:14.685Z,11.10
2022-09-24T01:45:41.551Z,11.10
2022-09-24T01:48:08.622Z,11.00
2022-09-24T01:50:49.725Z,11.00
2022-09-24T01:53:18.547Z,10.90
2022-09-24T01:55:50.226Z,10.90
2022-09-24T01:58:36.046Z,10.90
2022-09-24T02:01:05.973Z,10.90
2022-09-24T02:03:35.602Z,10.80
2022-09-24T02:06:08.748Z,10.90
2022-09-24T02:08:44.954Z,10.90
2022-09-24T02:11:21.645Z,10.90
2022-09-24T02:13:51.139Z,10.90
2022-09-24T02:16:21.665Z,10.90
2022-09-24T02:18:50.099Z,10.90
2022-09-24T02:21:18.360Z,10.90
2022-09-24T02:23:47.374Z,10.90
2022-09-24T02:26:13.915Z,11.10
2022-09-24T02:28:41.398Z,10.90
2022-09-24T02:31:11.011Z,10.90
2022-09-24T02:33:57.280Z,10.90
2022-09-24T02:36:24.846Z,10.90
2022-09-24T02:38:51.957Z,10.70
2022-09-24T02:41:19.602Z,10.90
2022-09-24T02:43:46.260Z,10.90
2022-09-24T02:46:12.804Z,10.90
2022-09-24T02:48:39.414Z,10.80
2022-09-24T02:51:06.088Z,10.90
2022-09-24T02:53:32.936Z,10.90
2022-09-24T02:56:00.815Z,10.90
2022-09-24T02:58:27.932Z,10.80
2022-09-24T03:00:57.352Z,10.80
2022-09-24T03:03:24.071Z,10.80
2022-09-24T03:05:52.664Z,10.80
2022-09-24T03:08:19.821Z,10.80
2022-09-24T03:10:46.771Z,10.80
2022-09-24T03:13:13.641Z,10.70
2022-09-24T03:15:40.205Z,10.80
2022-09-24T03:18:06.893Z,10.80
2022-09-24T03:20:33.426Z,10.70
2022-09-24T03:22:59.955Z,10.70
2022-09-24T03:25:26.455Z,10.80
2022-09-24T03:27:52.977Z,10.80
2022-09-24T03:30:38.130Z,10.80
2022-09-24T03:33:04.743Z,10.70
2022-09-24T03:35:31.228Z,10.70
2022-09-24T03:37:57.805Z,10.70
2022-09-24T03:40:25.458Z,10.70
2022-09-24T03:42:52.196Z,10.70
2022-09-24T03:45:18.782Z,10.70
2022-09-24T03:47:45.317Z,10.80
2022-09-24T03:50:11.822Z,10.70
2022-09-24T03:52:38.857Z,10.80
2022-09-24T03:55:05.604Z,10.70
2022-09-24T03:57:32.192Z,10.70
2022-09-24T03:59:59.335Z,10.70
2022-09-24T04:02:25.997Z,10.70
2022-09-24T04:04:52.537Z,10.70
2022-09-24T04:07:19.077Z,10.80
2022-09-24T04:09:45.634Z,10.80
2022-09-24T04:12:13.166Z,10.80
2022-09-24T04:14:39.701Z,10.80
2022-09-24T04:17:06.260Z,10.80
2022-09-24T04:19:33.198Z,10.80
2022-09-24T04:21:59.798Z,10.80
2022-09-24T04:24:26.913Z,10.80
2022-09-24T04:26:53.421Z,10.80
2022-09-24T04:29:19.927Z,10.80
2022-09-24T04:31:46.649Z,10.80
2022-09-24T04:34:14.511Z,10.80
2022-09-24T04:36:41.026Z,10.70
2022-09-24T04:39:07.527Z,10.70
2022-09-24T04:41:35.028Z,10.80
2022-09-24T04:44:01.661Z,10.70
2022-09-24T04:46:28.279Z,10.70
2022-09-24T04:48:55.088Z,10.60
2022-09-24T04:51:21.993Z,10.60
2022-09-24T04:53:50.492Z,10.60
2022-09-24T04:56:17.511Z,10.60
2022-09-24T04:58:44.614Z,10.50
2022-09-24T05:01:13.200Z,10.50
2022-09-24T05:03:39.846Z,10.50
2022-09-24T05:06:06.473Z,10.40
2022-09-24T05:08:33.013Z,10.40
2022-09-24T05:11:00.701Z,10.50
2022-09-24T05:13:27.422Z,10.40
2022-09-24T05:15:54.087Z,10.40
2022-09-24T05:18:20.653Z,10.50
2022-09-24T05:20:47.167Z,10.40
2022-09-24T05:23:13.685Z,10.40
2022-09-24T05:26:00.146Z,10.30
2022-09-24T05:28:27.092Z,10.30
2022-09-24T05:30:56.919Z,10.30
2022-09-24T05:33:23.468Z,10.30
2022-09-24T05:35:53.850Z,10.40
2022-09-24T05:38:20.357Z,10.40
2022-09-24T05:40:50.461Z,10.40
2022-09-24T05:43:19.190Z,10.40
2022-09-24T05:45:45.994Z,10.50
2022-09-24T05:48:12.501Z,10.10
2022-09-24T05:50:39.055Z,10.60
2022-09-24T05:53:05.794Z,10.70
2022-09-24T05:55:32.792Z,10.80
2022-09-24T05:58:03.328Z,10.80
2022-09-24T06:00:29.891Z,11.00
2022-09-24T06:03:01.556Z,11.10
2022-09-24T06:05:28.874Z,11.20
2022-09-24T06:07:56.128Z,11.20
2022-09-24T06:10:22.666Z,11.30
2022-09-24T06:12:50.463Z,11.40
2022-09-24T06:15:16.971Z,11.50
2022-09-24T06:17:43.453Z,11.60
2022-09-24T06:20:10.009Z,11.90
2022-09-24T06:22:36.481Z,12.10
2022-09-24T06:25:03.016Z,12.40
2022-09-24T06:27:29.527Z,12.70
2022-09-24T06:29:56.087Z,13.00
2022-09-24T06:32:23.438Z,13.30
2022-09-24T06:34:50.036Z,13.70
2022-09-24T06:37:16.569Z,14.20
2022-09-24T06:39:43.067Z,14.70
2022-09-24T06:42:09.612Z,15.20
2022-09-24T06:44:36.141Z,15.80
2022-09-24T06:47:02.868Z,16.30
2022-09-24T06:49:33.793Z,16.50
2022-09-24T06:52:00.747Z,16.80
2022-09-24T06:54:27.234Z,17.10
2022-09-24T06:56:53.769Z,17.20
2022-09-24T06:59:20.268Z,17.30
2022-09-24T07:01:46.853Z,17.40
2022-09-24T07:04:13.399Z,17.80
2022-09-24T07:06:58.447Z,17.80
2022-09-24T07:09:24.935Z,17.90
2022-09-24T07:11:52.117Z,18.00
2022-09-24T07:14:18.608Z,18.00
2022-09-24T07:16:47.125Z,17.90
2022-09-24T07:19:13.672Z,17.50
2022-09-24T07:21:40.271Z,17.30
2022-09-24T07:24:06.947Z,17.20
2022-09-24T07:26:33.923Z,17.30
2022-09-24T07:29:00.555Z,17.30
2022-09-24T07:31:27.102Z,17.30
2022-09-24T07:33:53.799Z,17.10
2022-09-24T07:36:20.340Z,17.00
2022-09-24T07:38:47.005Z,17.20
2022-09-24T07:41:13.578Z,17.30
2022-09-24T07:43:40.130Z,17.30
2022-09-24T07:46:07.194Z,17.70
2022-09-24T07:48:33.737Z,18.60
2022-09-24T07:51:00.522Z,19.50
2022-09-24T07:53:27.023Z,20.30
2022-09-24T07:55:53.646Z,20.70
2022-09-24T07:58:20.135Z,21.30
2022-09-24T08:00:46.793Z,21.70
2022-09-24T08:03:13.341Z,22.00
2022-09-24T08:05:44.987Z,22.70
2022-09-24T08:08:11.840Z,23.30
2022-09-24T08:10:38.520Z,23.30
2022-09-24T08:13:05.107Z,23.30
2022-09-24T08:15:31.648Z,23.30
2022-09-24T08:18:04.524Z,23.20
2022-09-24T08:20:32.048Z,23.10
2022-09-24T08:23:02.259Z,22.90
2022-09-24T08:25:28.832Z,22.90
2022-09-24T08:27:55.331Z,22.90
2022-09-24T08:30:21.944Z,23.40
2022-09-24T08:32:48.519Z,23.80
2022-09-24T08:35:18.653Z,24.60
2022-09-24T08:37:45.153Z,25.10
2022-09-24T08:40:18.161Z,25.40
2022-09-24T08:42:50.395Z,26.00
2022-09-24T08:45:35.918Z,26.20
2022-09-24T08:48:22.771Z,26.60
2022-09-24T08:50:58.153Z,26.70
2022-09-24T08:53:42.596Z,26.40
2022-09-24T08:56:10.266Z,25.80
2022-09-24T08:58:55.289Z,25.50
2022-09-24T09:01:31.472Z,25.20
2022-09-24T09:03:58.057Z,25.00
2022-09-24T09:06:36.796Z,24.70
2022-09-24T09:09:09.527Z,24.60
2022-09-24T09:11:36.851Z,24.20
2022-09-24T09:14:12.490Z,24.00
2022-09-24T09:16:46.578Z,24.10
2022-09-24T09:19:15.065Z,23.80
2022-09-24T09:21:43.259Z,23.70
2022-09-24T09:24:17.477Z,23.50
2022-09-24T09:26:48.619Z,23.60
2022-09-24T09:29:16.045Z,23.60
2022-09-24T09:31:56.371Z,23.40
2022-09-24T09:34:23.766Z,23.50
2022-09-24T09:37:09.304Z,23.70
2022-09-24T09:39:45.279Z,23.60
2022-09-24T09:42:21.897Z,23.80
2022-09-24T09:44:49.337Z,23.80
2022-09-24T09:47:25.502Z,23.50
2022-09-24T09:49:55.235Z,23.30
2022-09-24T09:52:24.703Z,23.60
2022-09-24T09:54:52.065Z,24.10
2022-09-24T09:57:20.347Z,24.60
2022-09-24T09:59:48.584Z,24.70
2022-09-24T10:02:22.234Z,24.30
2022-09-24T10:04:52.295Z,24.20
2022-09-24T10:07:18.834Z,23.90
2022-09-24T10:09:46.607Z,23.50
2022-09-24T10:12:17.738Z,23.10
2022-09-24T10:14:44.684Z,22.70
2022-09-24T10:17:16.882Z,22.50
2022-09-24T10:19:46.056Z,22.20
2022-09-24T10:22:21.143Z,21.90
2022-09-24T10:24:47.770Z,21.90
2022-09-24T10:27:19.154Z,21.80
2022-09-24T10:30:04.251Z,21.70
2022-09-24T10:32:30.787Z,21.50
2022-09-24T10:34:58.560Z,21.50
2022-09-24T10:37:25.156Z,21.50
2022-09-24T10:40:18.051Z,21.40
2022-09-24T10:42:44.900Z,21.40
2022-09-24T10:45:13.998Z,21.50
2022-09-24T10:48:01.874Z,21.40
2022-09-24T10:50:35.400Z,21.30
2022-09-24T10:53:12.634Z,21.10
2022-09-24T10:55:41.989Z,21.10
2022-09-24T10:58:11.711Z,21.00
2022-09-24T11:00:40.050Z,20.90
2022-09-24T11:03:15.593Z,20.80
2022-09-24T11:05:45.644Z,20.70
2022-09-24T11:08:26.982Z,20.70
2022-09-24T11:10:53.969Z,20.80
2022-09-24T11:13:40.503Z,21.00
2022-09-24T11:16:16.743Z,21.00
2022-09-24T11:19:03.104Z,21.40
2022-09-24T11:21:32.392Z,21.70
2022-09-24T11:24:11.347Z,22.00
2022-09-24T11:26:53.134Z,22.20
2022-09-24T11:29:45.960Z,22.30
2022-09-24T11:32:20.240Z,22.90
2022-09-24T11:35:03.435Z,23.10
2022-09-24T11:37:39.274Z,23.40
2022-09-24T11:40:23.986Z,23.30
2022-09-24T11:42:59.579Z,23.40
2022-09-24T11:45:32.979Z,23.10
2022-09-24T11:48:02.532Z,23.10
2022-09-24T11:50:45.085Z,22.90
2022-09-24T11:53:19.681Z,22.70
2022-09-24T11:55:49.324Z,22.60
2022-09-24T11:58:17.951Z,22.50
2022-09-24T12:01:05.197Z,22.40
2022-09-24T12:03:42.512Z,22.50
2022-09-24T12:06:19.042Z,22.30
2022-09-24T12:08:53.465Z,22.20
2022-09-24T12:11:37.038Z,22.30
2022-09-24T12:14:15.067Z,22.40
2022-09-24T12:16:44.322Z,22.40
2022-09-24T12:19:15.587Z,22.80
2022-09-24T12:21:45.261Z,23.10
2022-09-24T12:24:22.521Z,23.30
2022-09-24T12:26:49.807Z,23.60
2022-09-24T12:29:49.265Z,23.80
2022-09-24T12:32:37.676Z,23.80
2022-09-24T12:35:19.230Z,24.00
2022-09-24T12:37:49.664Z,24.00
2022-09-24T12:40:35.169Z,23.90
2022-09-24T12:43:02.409Z,23.90
2022-09-24T12:45:29.712Z,23.80
2022-09-24T12:48:00.166Z,23.60
2022-09-24T12:50:34.781Z,23.60
2022-09-24T12:53:01.305Z,23.80
2022-09-24T12:55:33.908Z,24.00
2022-09-24T12:58:00.396Z,24.10
2022-09-24T13:00:45.536Z,24.20
2022-09-24T13:03:31.117Z,24.00
2022-09-24T13:06:00.088Z,23.90
2022-09-24T13:08:34.661Z,23.60
2022-09-24T13:11:05.669Z,23.50
2022-09-24T13:13:43.354Z,23.50
2022-09-24T13:16:17.968Z,23.50
2022-09-24T13:18:52.404Z,23.70
2022-09-24T13:21:21.406Z,23.80
2022-09-24T13:23:48.703Z,24.00
2022-09-24T13:26:21.080Z,24.10
2022-09-24T13:28:48.833Z,24.00
2022-09-24T13:31:21.652Z,23.90
2022-09-24T13:33:50.635Z,24.00
2022-09-24T13:36:28.221Z,24.10
2022-09-24T13:39:01.055Z,24.00
2022-09-24T13:41:50.874Z,23.80
2022-09-24T13:44:23.589Z,23.80
2022-09-24T13:46:53.244Z,24.00
2022-09-24T13:49:20.516Z,24.10
2022-09-24T13:51:51.417Z,24.30
2022-09-24T13:54:34.782Z,24.20
2022-09-24T13:57:07.113Z,24.30
2022-09-24T13:59:33.590Z,24.10
2022-09-24T14:02:00.142Z,24.30
2022-09-24T14:04:27.325Z,24.80
2022-09-24T14:06:55.895Z,25.10
2022-09-24T14:09:32.729Z,25.20
2022-09-24T14:12:12.242Z,25.10
2022-09-24T14:14:43.170Z,25.10
2022-09-24T14:17:12.747Z,24.90
2022-09-24T14:19:39.636Z,24.70
2022-09-24T14:22:10.604Z,24.60
2022-09-24T14:24:43.108Z,24.40
2022-09-24T14:27:15.865Z,24.20
2022-09-24T14:29:48.820Z,24.00
2022-09-24T14:32:27.063Z,23.80
2022-09-24T14:34:56.020Z,23.70
2022-09-24T14:37:37.530Z,23.30
2022-09-24T14:40:15.224Z,22.90
2022-09-24T14:42:46.401Z,22.70
2022-09-24T14:45:21.205Z,22.60
2022-09-24T14:47:47.996Z,22.50
2022-09-24T14:50:36.420Z,22.40
2022-09-24T14:53:11.741Z,22.40
2022-09-24T14:55:39.306Z,22.10
2022-09-24T14:58:06.083Z,22.10
2022-09-24T15:00:37.665Z,22.10
2022-09-24T15:03:07.283Z,21.90
2022-09-24T15:05:34.111Z,21.80
2022-09-24T15:08:12.692Z,21.70
2022-09-24T15:10:39.922Z,21.60
2022-09-24T15:13:13.598Z,21.30
2022-09-24T15:15:40.292Z,21.30
2022-09-24T15:18:10.957Z,21.10
2022-09-24T15:20:37.874Z,21.20
2022-09-24T15:23:04.417Z,21.00
2022-09-24T15:25:31.082Z,21.10
2022-09-24T15:27:57.616Z,20.90
2022-09-24T15:30:24.298Z,20.70
2022-09-24T15:32:51.119Z,20.60
2022-09-24T15:35:17.665Z,20.60
2022-09-24T15:37:44.632Z,20.50
2022-09-24T15:40:22.954Z,20.90
2022-09-24T15:42:50.295Z,21.00
2022-09-24T15:45:24.233Z,21.00
2022-09-24T15:47:51.633Z,21.10
2022-09-24T15:50:19.041Z,21.20
2022-09-24T15:52:49.651Z,21.20
2022-09-24T15:55:18.042Z,21.10
2022-09-24T15:57:44.917Z,20.90
2022-09-24T16:00:19.129Z,20.70
2022-09-24T16:02:47.675Z,20.40
2022-09-24T16:05:14.843Z,20.20
2022-09-24T16:07:41.737Z,20.00
2022-09-24T16:10:08.856Z,19.90
2022-09-24T16:12:35.657Z,19.70
2022-09-24T16:15:02.236Z,19.60
2022-09-24T16:17:29.045Z,19.50
2022-09-24T16:19:55.564Z,19.30
2022-09-24T16:22:22.416Z,19.20
2022-09-24T16:24:49.262Z,19.20
2022-09-24T16:27:15.817Z,19.00
2022-09-24T16:29:42.310Z,19.00
2022-09-24T16:32:08.928Z,18.90
2022-09-24T16:34:35.491Z,18.90
2022-09-24T16:37:02.012Z,18.80
2022-09-24T16:39:28.484Z,18.70
2022-09-24T16:41:54.964Z,18.60
2022-09-24T16:44:21.481Z,18.60
2022-09-24T16:46:48.021Z,18.40
2022-09-24T16:49:14.604Z,18.40
2022-09-24T16:51:41.225Z,18.30
2022-09-24T16:54:07.899Z,18.20
2022-09-24T16:56:34.751Z,18.10
2022-09-24T16:59:01.634Z,18.40
2022-09-24T17:01:28.242Z,17.90
2022-09-24T17:03:55.639Z,17.90
2022-09-24T17:06:23.687Z,17.80
2022-09-24T17:09:09.343Z,17.70
2022-09-24T17:11:36.378Z,17.70
2022-09-24T17:14:03.002Z,17.70
2022-09-24T17:16:30.307Z,17.60
2022-09-24T17:18:57.580Z,17.60
2022-09-24T17:21:24.310Z,17.50
2022-09-24T17:23:51.023Z,17.40
2022-09-24T17:26:19.655Z,17.40
2022-09-24T17:28:46.868Z,17.30
2022-09-24T17:31:14.485Z,17.30
2022-09-24T17:33:44.490Z,17.20
2022-09-24T17:36:12.089Z,17.10
2022-09-24T17:38:38.781Z,17.00
2022-09-24T17:41:07.061Z,17.00
2022-09-24T17:43:33.964Z,16.90
2022-09-24T17:46:03.352Z,16.90
2022-09-24T17:48:31.460Z,16.80
2022-09-24T17:50:59.326Z,16.70
2022-09-24T17:53:26.547Z,16.70
2022-09-24T17:55:53.053Z,16.70
2022-09-24T17:58:19.583Z,16.60
2022-09-24T18:00:46.709Z,16.60
2022-09-24T18:03:13.433Z,16.50
2022-09-24T18:05:39.950Z,16.50
2022-09-24T18:08:06.720Z,16.50
2022-09-24T18:10:33.449Z,16.40
2022-09-24T18:12:59.983Z,16.40
2022-09-24T18:15:26.979Z,16.40
2022-09-24T18:17:53.848Z,16.40
2022-09-24T18:20:20.878Z,16.30
2022-09-24T18:22:47.423Z,16.20
2022-09-24T18:25:14.019Z,16.10
2022-09-24T18:27:40.803Z,16.10
2022-09-24T18:30:11.006Z,16.00
2022-09-24T18:32:40.016Z,16.10
2022-09-24T18:35:08.231Z,15.90
2022-09-24T18:37:35.499Z,15.80
2022-09-24T18:40:02.870Z,15.80
2022-09-24T18:42:29.364Z,15.80
2022-09-24T18:44:55.874Z,15.60
2022-09-24T18:47:22.368Z,15.70
2022-09-24T18:49:49.289Z,15.70
2022-09-24T18:52:15.828Z,15.70
2022-09-24T18:54:42.313Z,15.60
2022-09-24T18:57:08.863Z,15.50
2022-09-24T18:59:44.128Z,15.50
2022-09-24T19:02:11.716Z,15.40
2022-09-24T19:04:38.348Z,15.40
2022-09-24T19:07:08.508Z,15.30
2022-09-24T19:09:35.505Z,15.30
2022-09-24T19:12:05.105Z,15.20
2022-09-24T19:14:31.649Z,15.10
2022-09-24T19:16:58.196Z,15.10
2022-09-24T19:19:26.766Z,15.10
2022-09-24T19:21:53.536Z,15.00
2022-09-24T19:24:20.159Z,15.00
2022-09-24T19:26:46.675Z,15.00
2022-09-24T19:29:13.222Z,14.90
2022-09-24T19:31:41.555Z,14.90
2022-09-24T19:34:10.173Z,14.90
2022-09-24T19:36:42.840Z,14.90
2022-09-24T19:39:11.139Z,14.90
2022-09-24T19:41:37.889Z,14.90
2022-09-24T19:44:08.467Z,14.90
2022-09-24T19:46:36.999Z,14.90
2022-09-24T19:49:04.125Z,14.90
2022-09-24T19:51:31.633Z,14.90
2022-09-24T19:54:02.657Z,14.90
2022-09-24T19:56:29.893Z,14.90
2022-09-24T19:58:58.173Z,14.80
2022-09-24T20:01:27.877Z,14.80
2022-09-24T20:03:54.467Z,14.80
2022-09-24T20:06:22.602Z,14.80
2022-09-24T20:08:49.494Z,14.80
2022-09-24T20:11:19.320Z,14.80
2022-09-24T20:13:46.590Z,14.80
2022-09-24T20:16:19.237Z,14.70
2022-09-24T20:18:46.993Z,14.70
2022-09-24T20:21:13.786Z,14.70
2022-09-24T20:23:40.412Z,15.30
2022-09-24T20:26:25.780Z,14.70
2022-09-24T20:28:52.812Z,14.70
2022-09-24T20:31:22.604Z,14.70
2022-09-24T20:33:49.647Z,14.70
2022-09-24T20:36:19.718Z,14.70
2022-09-24T20:38:48.598Z,14.70
2022-09-24T20:41:19.614Z,14.70
2022-09-24T20:43:46.643Z,14.60
2022-09-24T20:46:17.639Z,14.60
2022-09-24T20:48:44.233Z,14.60
2022-09-24T20:51:11.690Z,14.60
2022-09-24T20:53:38.498Z,14.60
2022-09-24T20:56:05.917Z,14.50
2022-09-24T20:58:33.640Z,14.20
2022-09-24T21:01:00.774Z,14.50
2022-09-24T21:03:43.198Z,14.50
2022-09-24T21:06:15.270Z,14.50
2022-09-24T21:08:45.466Z,14.50
2022-09-24T21:11:13.279Z,14.50
2022-09-24T21:13:41.572Z,14.50
2022-09-24T21:16:09.565Z,14.50
2022-09-24T21:18:40.039Z,14.50
2022-09-24T21:21:07.441Z,14.50
2022-09-24T21:23:37.695Z,14.50
2022-09-24T21:26:09.851Z,14.50
2022-09-24T21:28:37.380Z,14.50
2022-09-24T21:31:04.969Z,14.40
2022-09-24T21:33:32.247Z,14.40
2022-09-24T21:36:00.109Z,14.40
2022-09-24T21:38:26.664Z,14.50
2022-09-24T21:40:56.910Z,14.40
2022-09-24T21:43:25.153Z,14.40
2022-09-24T21:45:52.712Z,14.40
2022-09-24T21:48:19.411Z,14.40
2022-09-24T21:50:46.017Z,14.30
2022-09-24T21:53:12.599Z,14.40
2022-09-24T21:55:39.230Z,14.40
2022-09-24T21:58:05.740Z,14.40
2022-09-24T22:00:32.302Z,14.40
2022-09-24T22:02:58.898Z,14.30
2022-09-24T22:05:25.444Z,14.40
2022-09-24T22:07:51.976Z,14.30
2022-09-24T22:10:18.539Z,14.40
2022-09-24T22:12:46.482Z,14.40
2022-09-24T22:15:13.017Z,14.40
2022-09-24T22:17:39.508Z,14.30
2022-09-24T22:20:06.393Z,14.30
2022-09-24T22:22:32.973Z,14.30
2022-09-24T22:24:59.505Z,14.30
2022-09-24T22:27:25.973Z,14.30
2022-09-24T22:29:52.451Z,14.30
2022-09-24T22:32:19.104Z,14.20
2022-09-24T22:35:04.158Z,14.10
2022-09-24T22:37:32.105Z,14.10
2022-09-24T22:39:58.792Z,14.10
2022-09-24T22:42:25.348Z,14.10
2022-09-24T22:44:51.837Z,14.00
2022-09-24T22:47:18.318Z,14.10
2022-09-24T22:49:44.884Z,14.10
2022-09-24T22:52:11.398Z,14.00
2022-09-24T22:54:37.930Z,14.10
2022-09-24T22:57:04.501Z,14.10
2022-09-24T22:59:31.143Z,14.00
2022-09-24T23:01:57.629Z,14.20
2022-09-24T23:04:24.278Z,14.00
2022-09-24T23:06:50.913Z,14.00
2022-09-24T23:09:17.440Z,14.10
2022-09-24T23:11:43.955Z,14.10
2022-09-24T23:14:12.411Z,14.00
2022-09-24T23:16:39.213Z,14.00
2022-09-24T23:19:06.978Z,14.00
2022-09-24T23:21:34.081Z,14.10
2022-09-24T23:24:01.830Z,14.10
2022-09-24T23:26:28.992Z,14.00
2022-09-24T23:28:56.158Z,14.00
2022-09-24T23:31:25.291Z,14.10
2022-09-24T23:33:53.169Z,14.00
2022-09-24T23:36:19.730Z,14.00
2022-09-24T23:38:46.357Z,14.10
2022-09-24T23:41:13.417Z,14.00
2022-09-24T23:43:41.087Z,14.00
2022-09-24T23:46:08.109Z,14.00
2022-09-24T23:48:34.744Z,14.00
2022-09-24T23:51:01.281Z,14.00
2022-09-24T23:53:27.804Z,13.90
2022-09-24T23:55:54.842Z,14.00
2022-09-24T23:58:22.849Z,13.90
